createdAt,value
2017-04-15T00:00:53.768Z,60.80
2017-04-15T00:01:52.894Z,61.10
2017-04-15T00:02:51.864Z,61.10
2017-04-15T00:03:50.932Z,61.30
2017-04-15T00:04:50.652Z,61.30
2017-04-15T00:05:49.665Z,61.50
2017-04-15T00:06:48.648Z,61.70
2017-04-15T00:07:47.744Z,61.70
2017-04-15T00:08:46.731Z,62.80
2017-04-15T00:09:45.847Z,62.00
2017-04-15T00:10:44.839Z,62.10
2017-04-15T00:11:43.873Z,62.00
2017-04-15T00:12:42.881Z,62.10
2017-04-15T00:13:41.901Z,62.10
2017-04-15T00:14:40.922Z,62.10
2017-04-15T00:15:39.943Z,62.10
2017-04-15T00:16:38.950Z,62.10
2017-04-15T00:17:38.134Z,62.10
2017-04-15T00:18:37.371Z,62.40
2017-04-15T00:19:36.389Z,62.50
2017-04-15T00:20:36.112Z,62.10
2017-04-15T00:21:35.095Z,62.00
2017-04-15T00:22:34.125Z,62.10
2017-04-15T00:23:33.573Z,62.20
2017-04-15T00:24:32.571Z,62.40
2017-04-15T00:25:31.601Z,62.10
2017-04-15T00:26:31.340Z,62.20
2017-04-15T00:27:30.304Z,62.40
2017-04-15T00:28:29.295Z,63.50
2017-04-15T00:29:28.292Z,62.50
2017-04-15T00:30:27.268Z,62.60
2017-04-15T00:31:26.260Z,62.50
2017-04-15T00:32:25.271Z,62.50
2017-04-15T00:33:24.250Z,63.40
2017-04-15T00:34:23.249Z,62.50
2017-04-15T00:35:22.265Z,62.60
2017-04-15T00:36:21.294Z,63.50
2017-04-15T00:37:20.341Z,62.60
2017-04-15T00:38:19.363Z,62.70
2017-04-15T00:39:18.380Z,62.90
2017-04-15T00:40:17.424Z,62.80
2017-04-15T00:41:16.451Z,62.80
2017-04-15T00:42:15.444Z,62.90
2017-04-15T00:43:14.431Z,63.00
2017-04-15T00:44:13.427Z,63.50
2017-04-15T00:45:12.424Z,63.20
2017-04-15T00:46:11.408Z,63.30
2017-04-15T00:47:10.390Z,63.50
2017-04-15T00:48:09.378Z,63.40
2017-04-15T00:49:08.399Z,63.40
2017-04-15T00:50:07.411Z,63.50
2017-04-15T00:51:06.379Z,63.60
2017-04-15T00:52:06.121Z,63.80
2017-04-15T00:53:05.093Z,63.80
2017-04-15T00:54:04.076Z,63.90
2017-04-15T00:55:03.063Z,64.00
2017-04-15T00:56:02.026Z,64.20
2017-04-15T00:57:01.017Z,65.10
2017-04-15T00:57:59.992Z,64.20
2017-04-15T00:58:59.031Z,64.30
2017-04-15T00:59:58.018Z,64.40
2017-04-15T01:00:57.020Z,64.40
2017-04-15T01:01:56.774Z,64.40
2017-04-15T01:02:55.790Z,64.50
2017-04-15T01:03:54.847Z,64.60
2017-04-15T01:04:53.815Z,64.80
2017-04-15T01:05:52.816Z,64.70
2017-04-15T01:06:51.862Z,64.70
2017-04-15T01:07:50.866Z,64.80
2017-04-15T01:08:49.887Z,64.80
2017-04-15T01:09:48.870Z,64.70
2017-04-15T01:10:47.919Z,64.90
2017-04-15T01:11:47.012Z,65.00
2017-04-15T01:12:46.023Z,65.20
2017-04-15T01:13:45.017Z,65.30
2017-04-15T01:14:44.007Z,65.30
2017-04-15T01:15:43.820Z,65.30
2017-04-15T01:16:43.559Z,65.30
2017-04-15T01:17:42.546Z,65.40
2017-04-15T01:18:41.585Z,65.20
2017-04-15T01:19:41.306Z,65.30
2017-04-15T01:20:40.296Z,65.20
2017-04-15T01:21:39.319Z,65.30
2017-04-15T01:22:39.045Z,65.50
2017-04-15T01:23:38.025Z,65.40
2017-04-15T01:24:37.056Z,65.50
2017-04-15T01:25:36.063Z,65.50
2017-04-15T01:26:35.059Z,65.50
2017-04-15T01:27:34.809Z,65.60
2017-04-15T01:28:33.867Z,65.40
2017-04-15T01:29:32.888Z,65.50
2017-04-15T01:30:31.927Z,65.50
2017-04-15T01:31:30.921Z,65.50
2017-04-15T01:32:30.668Z,65.60
2017-04-15T01:33:29.656Z,65.80
2017-04-15T01:34:28.687Z,65.50
2017-04-15T01:35:27.665Z,65.60
2017-04-15T01:36:26.698Z,65.70
2017-04-15T01:37:25.699Z,65.80
2017-04-15T01:38:24.699Z,65.80
2017-04-15T01:39:23.691Z,65.90
2017-04-15T01:40:22.665Z,65.90
2017-04-15T01:41:21.648Z,65.90
2017-04-15T01:42:20.659Z,66.10
2017-04-15T01:43:20.404Z,66.10
2017-04-15T01:44:19.407Z,66.10
2017-04-15T01:45:18.395Z,66.30
2017-04-15T01:46:17.461Z,66.30
2017-04-15T01:47:16.515Z,66.20
2017-04-15T01:48:15.527Z,66.50
2017-04-15T01:49:14.516Z,66.50
2017-04-15T01:50:13.491Z,66.50
2017-04-15T01:51:12.478Z,66.60
2017-04-15T01:52:11.459Z,66.60
2017-04-15T01:53:10.444Z,66.80
2017-04-15T01:54:09.440Z,66.80
2017-04-15T01:55:09.160Z,66.70
2017-04-15T01:56:08.120Z,66.80
2017-04-15T01:57:07.131Z,66.90
2017-04-15T01:58:06.126Z,66.80
2017-04-15T01:59:05.100Z,66.80
2017-04-15T02:00:04.143Z,66.90
2017-04-15T02:01:03.135Z,66.90
2017-04-15T02:02:02.136Z,67.00
2017-04-15T02:03:01.120Z,67.00
2017-04-15T02:04:00.088Z,67.00
2017-04-15T02:04:59.800Z,67.40
2017-04-15T02:05:58.808Z,66.90
2017-04-15T02:06:57.780Z,67.10
2017-04-15T02:07:56.758Z,67.20
2017-04-15T02:08:55.767Z,67.30
2017-04-15T02:09:54.791Z,67.40
2017-04-15T02:10:53.781Z,67.40
2017-04-15T02:11:52.821Z,67.40
2017-04-15T02:12:51.830Z,67.60
2017-04-15T02:13:50.805Z,67.60
2017-04-15T02:14:49.800Z,67.70
2017-04-15T02:15:49.548Z,67.80
2017-04-15T02:16:48.508Z,67.70
2017-04-15T02:17:48.235Z,67.80
2017-04-15T02:18:47.195Z,67.80
2017-04-15T02:19:46.964Z,67.90
2017-04-15T02:20:45.935Z,68.10
2017-04-15T02:21:44.948Z,68.00
2017-04-15T02:22:43.903Z,68.10
2017-04-15T02:23:42.929Z,68.20
2017-04-15T02:24:42.698Z,68.20
2017-04-15T02:25:41.669Z,68.20
2017-04-15T02:26:40.640Z,68.30
2017-04-15T02:27:39.637Z,68.20
2017-04-15T02:28:38.611Z,68.30
2017-04-15T02:29:37.688Z,68.40
2017-04-15T02:30:36.668Z,68.30
2017-04-15T02:31:35.680Z,68.30
2017-04-15T02:32:34.657Z,69.10
2017-04-15T02:33:33.669Z,68.40
2017-04-15T02:34:32.949Z,68.60
2017-04-15T02:35:31.995Z,68.50
2017-04-15T02:36:30.999Z,68.60
2017-04-15T02:37:30.008Z,68.60
2017-04-15T02:38:29.016Z,68.90
2017-04-15T02:39:27.988Z,68.80
2017-04-15T02:40:27.114Z,68.80
2017-04-15T02:41:26.143Z,68.90
2017-04-15T02:42:25.183Z,69.00
2017-04-15T02:43:24.164Z,69.20
2017-04-15T02:44:23.159Z,69.30
2017-04-15T02:45:22.162Z,69.60
2017-04-15T02:46:21.134Z,69.80
2017-04-15T02:47:20.871Z,69.90
2017-04-15T02:48:19.902Z,70.10
2017-04-15T02:49:18.885Z,70.20
2017-04-15T02:50:17.888Z,70.30
2017-04-15T02:51:16.881Z,70.30
2017-04-15T02:52:15.873Z,70.40
2017-04-15T02:53:14.882Z,70.50
2017-04-15T02:54:14.588Z,70.30
2017-04-15T02:55:14.334Z,70.30
2017-04-15T02:56:13.336Z,70.30
2017-04-15T02:57:12.347Z,70.20
2017-04-15T02:58:11.356Z,70.10
2017-04-15T02:59:10.387Z,70.30
2017-04-15T03:00:09.472Z,70.40
2017-04-15T03:01:08.512Z,70.50
2017-04-15T03:02:07.595Z,70.70
2017-04-15T03:03:06.594Z,71.50
2017-04-15T03:04:05.692Z,70.80
2017-04-15T03:05:04.683Z,70.90
2017-04-15T03:06:03.707Z,71.10
2017-04-15T03:07:02.692Z,71.20
2017-04-15T03:08:01.660Z,71.30
2017-04-15T03:09:00.628Z,71.40
2017-04-15T03:09:59.611Z,71.60
2017-04-15T03:10:58.627Z,71.60
2017-04-15T03:11:57.644Z,71.60
2017-04-15T03:12:56.635Z,71.40
2017-04-15T03:13:55.646Z,71.50
2017-04-15T03:14:54.676Z,71.80
2017-04-15T03:15:54.390Z,71.90
2017-04-15T03:16:53.407Z,72.10
2017-04-15T03:17:53.739Z,72.10
2017-04-15T03:18:52.822Z,72.20
2017-04-15T03:19:51.830Z,72.30
2017-04-15T03:20:50.861Z,72.40
2017-04-15T03:21:50.618Z,72.60
2017-04-15T03:22:49.686Z,72.70
2017-04-15T03:23:48.736Z,72.70
2017-04-15T03:24:47.773Z,72.80
2017-04-15T03:25:46.805Z,72.90
2017-04-15T03:26:45.826Z,73.00
2017-04-15T03:27:44.847Z,73.00
2017-04-15T03:28:44.109Z,73.10
2017-04-15T03:29:43.195Z,73.20
2017-04-15T03:30:42.215Z,73.20
2017-04-15T03:31:41.252Z,73.20
2017-04-15T03:32:40.286Z,73.30
2017-04-15T03:33:40.077Z,73.40
2017-04-15T03:34:39.153Z,73.40
2017-04-15T03:35:38.163Z,73.50
2017-04-15T03:36:37.971Z,74.50
2017-04-15T03:37:37.730Z,73.60
2017-04-15T03:39:36.552Z,73.50
2017-04-15T03:40:36.336Z,73.50
2017-04-15T03:41:35.356Z,73.60
2017-04-15T03:42:34.386Z,73.60
2017-04-15T03:43:33.438Z,73.60
2017-04-15T03:44:32.494Z,73.60
2017-04-15T03:45:32.247Z,74.10
2017-04-15T03:46:31.386Z,73.70
2017-04-15T03:47:31.189Z,73.80
2017-04-15T03:48:30.951Z,74.00
2017-04-15T03:49:29.988Z,74.10
2017-04-15T03:50:28.997Z,74.20
2017-04-15T03:51:28.059Z,74.20
2017-04-15T03:52:27.120Z,74.30
2017-04-15T03:54:25.542Z,74.20
2017-04-15T03:55:24.544Z,74.30
2017-04-15T03:56:23.564Z,74.30
2017-04-15T03:57:22.595Z,74.30
2017-04-15T03:58:21.634Z,74.40
2017-04-15T03:59:20.686Z,74.50
2017-04-15T04:00:19.728Z,74.50
2017-04-15T04:01:18.769Z,74.40
2017-04-15T04:02:17.800Z,74.50
2017-04-15T04:03:16.823Z,74.60
2017-04-15T04:04:16.046Z,74.70
2017-04-15T04:05:15.101Z,74.70
2017-04-15T04:06:14.214Z,74.80
2017-04-15T04:07:13.252Z,75.70
2017-04-15T04:08:12.307Z,74.90
2017-04-15T04:09:11.334Z,75.00
2017-04-15T04:10:10.375Z,74.90
2017-04-15T04:11:09.459Z,74.90
2017-04-15T04:12:08.596Z,75.00
2017-04-15T04:13:07.580Z,74.90
2017-04-15T04:14:06.638Z,75.00
2017-04-15T04:15:05.792Z,75.00
2017-04-15T04:16:04.790Z,75.10
2017-04-15T04:17:04.552Z,75.10
2017-04-15T04:18:03.525Z,76.00
2017-04-15T04:19:02.506Z,75.10
2017-04-15T04:20:02.264Z,75.00
2017-04-15T04:21:01.283Z,74.90
2017-04-15T04:22:00.350Z,75.00
2017-04-15T04:22:59.352Z,75.00
2017-04-15T04:23:58.360Z,75.10
2017-04-15T04:24:57.321Z,75.10
2017-04-15T04:25:56.331Z,75.10
2017-04-15T04:26:55.349Z,75.10
2017-04-15T04:27:54.352Z,75.00
2017-04-15T04:28:53.421Z,75.00
2017-04-15T04:29:52.455Z,75.10
2017-04-15T04:30:51.479Z,75.10
2017-04-15T04:32:55.923Z,74.90
2017-04-15T04:33:54.924Z,74.80
2017-04-15T04:34:53.998Z,74.70
2017-04-15T04:35:53.069Z,74.70
2017-04-15T04:36:52.274Z,74.50
2017-04-15T04:37:51.287Z,74.50
2017-04-15T04:38:50.434Z,74.50
2017-04-15T04:39:49.461Z,74.40
2017-04-15T04:40:48.468Z,74.30
2017-04-15T04:41:47.512Z,74.30
2017-04-15T04:42:47.268Z,74.00
2017-04-15T04:43:46.312Z,73.90
2017-04-15T04:44:45.375Z,73.90
2017-04-15T04:45:44.476Z,73.80
2017-04-15T04:46:43.495Z,73.70
2017-04-15T04:47:42.510Z,73.70
2017-04-15T04:48:41.515Z,73.60
2017-04-15T04:49:40.558Z,73.40
2017-04-15T04:50:39.585Z,73.30
2017-04-15T04:51:38.572Z,73.40
2017-04-15T04:52:37.620Z,74.40
2017-04-15T04:53:36.649Z,73.40
2017-04-15T04:54:35.995Z,73.30
2017-04-15T04:55:35.821Z,73.00
2017-04-15T04:56:34.868Z,73.00
2017-04-15T04:57:33.882Z,72.70
2017-04-15T04:58:33.891Z,72.50
2017-04-15T05:00:39.769Z,72.10
2017-04-15T05:01:38.764Z,72.20
2017-04-15T05:02:37.780Z,72.00
2017-04-15T05:03:37.484Z,71.80
2017-04-15T05:04:36.646Z,71.60
2017-04-15T05:05:35.732Z,71.00
2017-04-15T05:06:34.889Z,70.90
2017-04-15T05:07:33.933Z,70.90
2017-04-15T05:08:32.956Z,70.50
2017-04-15T05:09:31.935Z,70.80
2017-04-15T05:10:30.904Z,70.00
2017-04-15T05:11:29.898Z,69.70
2017-04-15T05:12:28.879Z,70.10
2017-04-15T05:13:27.863Z,69.80
2017-04-15T05:14:28.488Z,69.40
2017-04-15T05:15:27.527Z,69.50
2017-04-15T05:16:26.926Z,69.20
2017-04-15T05:17:25.968Z,69.30
2017-04-15T05:18:24.969Z,68.90
2017-04-15T05:19:23.984Z,68.60
2017-04-15T05:20:23.095Z,68.30
2017-04-15T05:21:22.151Z,68.00
2017-04-15T05:22:21.188Z,67.90
2017-04-15T05:23:20.206Z,67.80
2017-04-15T05:28:46.211Z,67.80
2017-04-15T05:29:45.272Z,67.00
2017-04-15T05:30:44.843Z,67.20
2017-04-15T05:31:44.445Z,67.50
2017-04-15T05:32:43.486Z,67.30
2017-04-15T05:33:42.486Z,67.10
2017-04-15T05:34:41.558Z,67.30
2017-04-15T05:35:40.545Z,66.90
2017-04-15T05:36:39.572Z,66.10
2017-04-15T05:37:38.648Z,66.10
2017-04-15T05:38:37.657Z,66.20
2017-04-15T05:39:36.661Z,66.20
2017-04-15T05:40:35.655Z,66.00
2017-04-15T05:41:34.636Z,66.00
2017-04-15T05:42:33.611Z,65.50
2017-04-15T05:43:32.603Z,65.30
2017-04-15T05:44:31.630Z,64.60
2017-04-15T05:45:30.607Z,64.70
2017-04-15T05:46:29.666Z,65.40
2017-04-15T05:47:28.655Z,65.50
2017-04-15T05:48:27.640Z,65.40
2017-04-15T05:49:27.371Z,65.40
2017-04-15T05:50:26.402Z,65.20
2017-04-15T05:51:25.482Z,65.00
2017-04-15T05:52:24.523Z,65.10
2017-04-15T05:53:23.526Z,65.00
2017-04-15T05:54:22.524Z,64.90
2017-04-15T05:55:21.500Z,65.20
2017-04-15T05:56:20.505Z,64.80
2017-04-15T05:57:19.528Z,64.80
2017-04-15T05:58:18.622Z,64.80
2017-04-15T05:59:17.680Z,65.10
2017-04-15T06:00:17.480Z,64.80
2017-04-15T06:01:16.482Z,64.50
2017-04-15T06:02:15.564Z,64.00
2017-04-15T06:03:14.525Z,63.80
2017-04-15T06:04:13.601Z,63.90
2017-04-15T06:05:12.579Z,63.90
2017-04-15T06:06:11.618Z,63.80
2017-04-15T06:07:10.608Z,63.50
2017-04-15T06:08:09.723Z,62.70
2017-04-15T06:09:08.714Z,62.50
2017-04-15T06:10:07.748Z,61.10
2017-04-15T06:11:07.246Z,62.70
2017-04-15T06:12:06.666Z,62.10
2017-04-15T06:13:06.201Z,61.10
2017-04-15T06:14:05.284Z,61.20
2017-04-15T06:15:04.329Z,61.30
2017-04-15T06:16:03.353Z,60.90
2017-04-15T06:17:02.323Z,60.60
2017-04-15T06:18:01.304Z,60.60
2017-04-15T06:19:00.305Z,60.60
2017-04-15T06:19:59.305Z,60.40
2017-04-15T06:20:58.282Z,60.40
2017-04-15T06:21:58.046Z,60.60
2017-04-15T06:22:57.051Z,61.00
2017-04-15T06:23:56.045Z,61.00
2017-04-15T06:24:55.811Z,61.10
2017-04-15T06:25:54.793Z,60.80
2017-04-15T06:26:53.784Z,60.40
2017-04-15T06:27:52.787Z,60.20
2017-04-15T06:28:51.819Z,60.40
2017-04-15T06:29:50.796Z,60.40
2017-04-15T06:30:49.785Z,60.50
2017-04-15T06:31:48.783Z,60.80
2017-04-15T06:32:47.824Z,61.00
2017-04-15T06:33:46.851Z,62.10
2017-04-15T06:34:45.850Z,62.20
2017-04-15T06:35:44.851Z,61.40
2017-04-15T06:36:43.869Z,60.90
2017-04-15T06:37:42.955Z,60.90
2017-04-15T06:38:41.939Z,61.90
2017-04-15T06:39:40.976Z,61.70
2017-04-15T06:40:39.969Z,61.80
2017-04-15T06:41:38.959Z,61.60
2017-04-15T06:42:37.974Z,61.80
2017-04-15T06:43:36.998Z,61.80
2017-04-15T06:44:36.031Z,62.20
2017-04-15T06:45:35.774Z,62.50
2017-04-15T06:46:35.188Z,62.30
2017-04-15T06:47:34.377Z,62.60
2017-04-15T06:48:33.388Z,62.70
2017-04-15T06:49:32.532Z,62.30
2017-04-15T06:50:31.570Z,62.10
2017-04-15T06:51:31.295Z,62.70
2017-04-15T06:52:30.276Z,62.90
2017-04-15T06:53:29.286Z,63.30
2017-04-15T06:54:28.269Z,63.00
2017-04-15T06:55:27.233Z,62.60
2017-04-15T06:56:26.221Z,62.20
2017-04-15T06:57:25.228Z,61.50
2017-04-15T06:58:24.227Z,61.40
2017-04-15T06:59:23.215Z,61.10
2017-04-15T07:00:22.740Z,60.90
2017-04-15T07:01:21.769Z,60.90
2017-04-15T07:02:20.881Z,60.50
2017-04-15T07:09:50.512Z,55.00
2017-04-15T07:10:49.486Z,54.00
2017-04-15T07:13:48.092Z,54.00
2017-04-15T07:14:47.091Z,53.50
2017-04-15T07:15:46.812Z,53.90
2017-04-15T07:16:45.796Z,54.40
2017-04-15T07:18:48.937Z,54.50
2017-04-15T07:20:47.276Z,54.20
2017-04-15T07:21:46.237Z,54.50
2017-04-15T07:22:45.196Z,54.60
2017-04-15T07:23:44.912Z,54.70
2017-04-15T07:24:43.867Z,54.70
2017-04-15T07:28:46.463Z,54.60
2017-04-15T07:29:45.431Z,54.80
2017-04-15T07:30:44.405Z,54.80
2017-04-15T07:38:49.291Z,54.70
2017-04-15T07:39:48.267Z,55.20
2017-04-15T07:40:48.155Z,55.40
2017-04-15T07:41:47.171Z,55.30
2017-04-15T07:42:46.131Z,55.10
2017-04-15T07:43:45.129Z,55.50
2017-04-15T07:44:44.144Z,55.60
2017-04-15T07:45:43.110Z,55.80
2017-04-15T07:46:42.823Z,56.30
2017-04-15T07:47:41.816Z,56.00
2017-04-15T07:48:40.771Z,57.20
2017-04-15T07:49:40.464Z,57.30
2017-04-15T07:50:40.226Z,56.90
2017-04-15T07:51:39.208Z,57.20
2017-04-15T07:52:38.185Z,57.90
2017-04-15T07:53:37.529Z,58.30
2017-04-15T07:54:36.500Z,58.10
2017-04-15T07:55:35.469Z,58.00
2017-04-15T07:56:34.495Z,57.80
2017-04-15T07:57:33.451Z,58.80
2017-04-15T07:58:32.445Z,59.30
2017-04-15T07:59:32.146Z,59.80
2017-04-15T08:00:31.120Z,61.00
2017-04-15T08:01:30.098Z,61.80
2017-04-15T08:02:29.152Z,61.40
2017-04-15T08:03:28.123Z,62.10
2017-04-15T08:04:27.090Z,64.10
2017-04-15T08:05:26.069Z,64.00
2017-04-15T08:06:25.059Z,65.20
2017-04-15T08:07:24.044Z,66.30
2017-04-15T08:08:23.056Z,64.30
2017-04-15T08:09:22.077Z,66.50
2017-04-15T08:10:21.047Z,67.30
2017-04-15T08:11:20.020Z,69.50
2017-04-15T08:12:18.995Z,71.80
2017-04-15T08:13:17.961Z,71.70
2017-04-15T08:14:16.964Z,74.50
2017-04-15T08:15:15.929Z,74.20
2017-04-15T08:16:14.920Z,71.10
2017-04-15T08:17:14.741Z,71.30
2017-04-15T08:18:14.148Z,67.60
2017-04-15T08:19:14.223Z,70.10
2017-04-15T08:20:13.931Z,71.80
2017-04-15T08:21:14.390Z,71.90
2017-04-15T08:22:14.256Z,72.60
2017-04-15T08:32:48.542Z,79.10
2017-04-15T12:30:04.874Z,79.50
2017-04-15T12:31:03.935Z,72.60
2017-04-15T12:32:02.911Z,68.90
2017-04-15T12:33:01.892Z,66.50
2017-04-15T12:34:00.903Z,67.60
2017-04-15T12:34:59.873Z,67.90
2017-04-15T12:35:58.845Z,69.10
2017-04-15T12:36:57.858Z,69.20
2017-04-15T12:37:56.837Z,69.30
2017-04-15T12:38:55.840Z,69.00
2017-04-15T12:39:54.865Z,68.50
2017-04-15T12:40:54.592Z,69.40
2017-04-15T12:41:53.589Z,69.50
2017-04-15T12:42:52.555Z,70.00
2017-04-15T12:43:51.535Z,70.60
2017-04-15T12:44:50.501Z,70.90
2017-04-15T12:45:49.544Z,71.50
2017-04-15T12:46:48.626Z,71.10
2017-04-15T12:47:47.620Z,70.90
2017-04-15T12:48:46.597Z,69.60
2017-04-15T12:49:45.599Z,69.70
2017-04-15T12:50:44.615Z,69.90
2017-04-15T12:51:43.609Z,68.60
2017-04-15T12:52:42.578Z,69.10
2017-04-15T12:53:41.547Z,68.60
2017-04-15T12:54:40.524Z,68.40
2017-04-15T12:55:39.508Z,69.00
2017-04-15T12:56:38.491Z,69.80
2017-04-15T12:57:37.531Z,70.30
2017-04-15T12:58:36.513Z,71.50
2017-04-15T12:59:36.228Z,72.80
2017-04-15T13:00:35.232Z,74.10
2017-04-15T13:01:34.265Z,74.90
2017-04-15T13:02:33.376Z,76.70
2017-04-15T13:03:33.120Z,78.20
2017-04-15T13:04:32.189Z,80.20
2017-04-15T13:05:31.160Z,81.40
2017-04-15T13:06:30.164Z,79.80
2017-04-15T13:07:29.432Z,80.00
2017-04-15T13:08:28.531Z,79.80
2017-04-15T13:09:27.542Z,79.10
2017-04-15T13:10:26.529Z,78.60
2017-04-15T13:11:25.525Z,76.10
2017-04-15T13:12:24.535Z,76.70
2017-04-15T13:13:23.542Z,75.00
2017-04-15T13:14:22.575Z,74.00
2017-04-15T13:15:21.637Z,73.80
2017-04-15T13:16:20.952Z,71.70
2017-04-15T13:17:19.942Z,68.80
2017-04-15T13:18:18.930Z,71.90
2017-04-15T13:19:18.709Z,72.70
2017-04-15T13:20:17.789Z,72.40
2017-04-15T13:21:16.787Z,70.90
2017-04-15T13:22:15.798Z,71.80
2017-04-15T13:23:14.773Z,71.70
2017-04-15T13:24:13.828Z,70.00
2017-04-15T13:25:12.807Z,69.50
2017-04-15T13:26:11.775Z,70.10
2017-04-15T13:27:10.872Z,70.80
2017-04-15T13:28:09.835Z,68.50
2017-04-15T13:29:08.800Z,66.20
2017-04-15T13:30:07.794Z,65.50
2017-04-15T13:31:06.776Z,64.90
2017-04-15T13:32:05.766Z,66.60
2017-04-15T13:33:04.807Z,65.00
2017-04-15T13:34:03.815Z,62.90
2017-04-15T13:38:49.107Z,65.50
2017-04-15T13:39:48.119Z,65.20
2017-04-15T13:40:47.168Z,65.00
2017-04-15T13:41:46.157Z,64.30
2017-04-15T13:42:45.122Z,63.80
2017-04-15T13:43:44.089Z,63.20
2017-04-15T13:44:43.160Z,64.70
2017-04-15T13:45:42.129Z,61.70
2017-04-15T13:46:41.127Z,62.50
2017-04-15T13:47:40.110Z,61.90
2017-04-15T13:48:39.736Z,61.00
2017-04-15T13:49:38.739Z,61.70
2017-04-15T13:50:37.763Z,62.30
2017-04-15T13:51:36.801Z,62.10
2017-04-15T13:52:35.828Z,62.50
2017-04-15T13:53:34.794Z,62.60
2017-04-15T13:54:33.919Z,63.90
2017-04-15T13:55:32.881Z,63.00
2017-04-15T13:56:31.884Z,62.80
2017-04-15T13:57:30.868Z,60.60
2017-04-15T13:58:29.856Z,60.80
2017-04-15T13:59:28.840Z,61.40
2017-04-15T14:00:27.803Z,60.70
2017-04-15T14:01:26.803Z,61.60
2017-04-15T14:02:27.181Z,61.40
2017-04-15T14:03:26.210Z,61.20
2017-04-15T14:04:25.979Z,60.30
2017-04-15T14:05:25.012Z,60.20
2017-04-15T14:06:24.105Z,60.30
2017-04-15T14:07:23.062Z,60.00
2017-04-15T14:08:22.788Z,60.50
2017-04-15T14:09:22.512Z,61.10
2017-04-15T14:10:21.485Z,60.80
2017-04-15T14:11:20.428Z,61.50
2017-04-15T14:12:19.473Z,61.40
2017-04-15T14:13:18.456Z,60.00
2017-04-15T14:14:17.452Z,60.60
2017-04-15T14:15:16.445Z,60.90
2017-04-15T14:16:15.422Z,60.20
2017-04-15T14:17:14.438Z,60.40
2017-04-15T14:18:13.404Z,60.30
2017-04-15T14:19:12.457Z,59.70
2017-04-15T14:20:11.436Z,59.70
2017-04-15T14:21:10.412Z,59.80
2017-04-15T14:22:09.380Z,59.90
2017-04-15T14:23:09.127Z,59.10
2017-04-15T14:24:08.355Z,59.10
2017-04-15T14:25:07.367Z,59.10
2017-04-15T14:26:06.610Z,58.00
2017-04-15T14:27:05.924Z,57.60
2017-04-15T14:28:05.668Z,56.20
2017-04-15T14:29:04.908Z,55.90
2017-04-15T14:30:03.900Z,55.20
2017-04-15T14:31:04.513Z,54.30
2017-04-15T14:32:04.170Z,53.50
2017-04-15T14:33:03.199Z,54.10
2017-04-15T14:34:02.151Z,53.40
2017-04-15T14:35:01.127Z,53.30
2017-04-15T14:36:00.482Z,52.60
2017-04-15T14:37:01.465Z,51.60
2017-04-15T14:38:01.595Z,51.40
2017-04-15T14:39:00.855Z,51.20
2017-04-15T14:39:59.839Z,50.80
2017-04-15T14:40:58.813Z,51.30
2017-04-15T14:41:57.770Z,52.00
2017-04-15T14:42:56.738Z,52.50
2017-04-15T14:43:55.764Z,53.30
2017-04-15T14:44:54.766Z,53.90
2017-04-15T14:45:53.805Z,55.10
2017-04-15T14:46:52.791Z,57.10
2017-04-15T14:47:51.760Z,58.30
2017-04-15T14:48:50.735Z,61.40
2017-04-15T14:49:50.480Z,65.30
2017-04-15T14:50:49.580Z,69.90
2017-04-15T14:51:50.718Z,70.70
2017-04-15T14:52:50.331Z,72.20
2017-04-15T14:53:50.833Z,73.10
2017-04-15T14:54:49.840Z,74.00
2017-04-15T14:55:48.816Z,76.40
2017-04-15T14:56:47.781Z,77.90
2017-04-15T14:57:46.734Z,77.30
2017-04-15T14:58:45.701Z,78.40
2017-04-15T14:59:44.675Z,78.30
2017-04-15T15:00:43.633Z,78.90
2017-04-15T15:01:42.624Z,79.40
2017-04-15T15:02:41.606Z,79.70
2017-04-15T15:03:40.589Z,79.60
2017-04-15T15:04:39.568Z,80.50
2017-04-15T15:05:38.536Z,79.50
2017-04-15T15:06:37.496Z,79.20
2017-04-15T15:07:36.628Z,77.40
2017-04-15T15:08:36.318Z,77.10
2017-04-15T15:09:35.284Z,77.80
2017-04-15T15:10:34.258Z,76.80
2017-04-15T15:11:33.252Z,77.40
2017-04-15T15:12:32.247Z,76.30
2017-04-15T15:13:32.009Z,73.60
2017-04-15T15:14:30.975Z,72.50
2017-04-15T15:15:29.938Z,70.00
2017-04-15T15:16:28.920Z,70.50
2017-04-15T15:17:27.890Z,68.10
2017-04-15T15:18:27.617Z,69.00
2017-04-15T15:19:26.629Z,68.10
2017-04-15T15:20:25.616Z,66.60
2017-04-15T15:21:24.581Z,65.90
2017-04-15T15:22:23.605Z,66.10
2017-04-15T15:23:22.588Z,65.40
2017-04-15T15:24:21.559Z,65.30
2017-04-15T15:25:21.294Z,66.10
2017-04-15T15:26:20.377Z,64.50
2017-04-15T15:27:19.338Z,61.80
2017-04-15T15:28:19.035Z,61.00
2017-04-15T15:29:18.734Z,61.80
2017-04-15T15:30:17.708Z,61.70
2017-04-15T15:31:17.438Z,60.20
2017-04-15T15:32:16.392Z,59.90
2017-04-15T15:33:16.164Z,59.50
2017-04-15T15:34:15.172Z,59.80
2017-04-15T15:35:14.130Z,59.10
2017-04-15T15:36:13.092Z,59.20
2017-04-15T15:37:12.115Z,58.30
2017-04-15T15:38:11.081Z,56.40
2017-04-15T15:39:10.064Z,56.30
2017-04-15T15:40:09.043Z,55.70
2017-04-15T15:41:08.087Z,55.70
2017-04-15T15:42:07.077Z,56.30
2017-04-15T15:43:06.056Z,56.40
2017-04-15T15:44:05.600Z,56.40
2017-04-15T15:45:04.577Z,55.60
2017-04-15T15:46:03.573Z,56.20
2017-04-15T15:47:02.554Z,56.60
2017-04-15T15:48:01.536Z,56.60
2017-04-15T15:49:00.543Z,56.50
2017-04-15T15:49:59.596Z,57.00
2017-04-15T15:50:58.578Z,57.20
2017-04-15T15:51:57.557Z,57.30
2017-04-15T15:52:56.673Z,57.00
2017-04-15T15:53:55.648Z,56.50
2017-04-15T15:54:54.730Z,55.30
2017-04-15T15:55:53.698Z,55.60
2017-04-15T15:56:52.719Z,56.20
2017-04-15T15:57:51.684Z,55.90
2017-04-15T15:58:51.011Z,56.60
2017-04-15T15:59:49.971Z,57.10
2017-04-15T16:00:49.697Z,56.90
2017-04-15T16:01:48.684Z,57.10
2017-04-15T16:02:47.698Z,56.30
2017-04-15T16:03:46.659Z,56.20
2017-04-15T16:04:45.608Z,56.60
2017-04-15T16:05:44.585Z,56.50
2017-04-15T16:06:44.313Z,55.80
2017-04-15T16:07:43.284Z,56.90
2017-04-15T16:08:42.253Z,57.90
2017-04-15T16:19:50.448Z,54.70
2017-04-15T16:20:49.432Z,53.90
2017-04-15T16:21:48.396Z,53.40
2017-04-15T16:22:47.372Z,52.30
2017-04-15T16:23:47.200Z,52.10
2017-04-15T16:24:46.182Z,52.40
2017-04-15T16:25:45.179Z,53.00
2017-04-15T16:26:44.149Z,52.00
2017-04-15T16:27:43.149Z,51.90
2017-04-15T16:28:42.163Z,51.30
2017-04-15T16:29:41.134Z,50.90
2017-04-15T16:30:40.165Z,51.50
2017-04-15T16:31:39.151Z,52.00
2017-04-15T16:32:38.123Z,51.80
2017-04-15T16:33:37.123Z,51.10
2017-04-15T16:34:36.628Z,51.30
2017-04-15T16:35:35.628Z,51.60
2017-04-15T16:36:34.593Z,51.40
2017-04-15T16:37:33.594Z,51.80
2017-04-15T16:38:32.979Z,51.80
2017-04-15T16:39:31.979Z,51.80
2017-04-15T16:40:30.951Z,52.30
2017-04-15T16:41:29.923Z,52.10
2017-04-15T16:42:28.877Z,52.00
2017-04-15T16:43:27.876Z,52.60
2017-04-15T16:44:26.879Z,52.60
2017-04-15T16:45:25.851Z,52.90
2017-04-15T16:46:31.247Z,53.10
2017-04-15T16:47:30.996Z,53.70
2017-04-15T16:48:29.983Z,54.00
2017-04-15T16:49:28.949Z,52.70
2017-04-15T16:50:27.911Z,53.00
2017-04-15T16:51:27.615Z,53.20
2017-04-15T16:52:27.334Z,52.90
2017-04-15T16:53:26.352Z,52.90
2017-04-15T16:54:25.384Z,52.50
2017-04-15T16:55:24.373Z,51.90
2017-04-15T16:56:30.060Z,52.20
2017-04-15T16:57:29.057Z,51.60
2017-04-15T16:58:28.029Z,51.00
2017-04-15T16:59:27.052Z,51.30
2017-04-15T17:00:26.016Z,51.10
2017-04-15T17:01:25.741Z,50.20
2017-04-15T17:02:24.808Z,50.00
2017-04-15T17:03:24.681Z,50.20
2017-04-15T17:04:24.307Z,50.10
2017-04-15T17:05:24.100Z,50.20
2017-04-15T17:06:23.860Z,50.30
2017-04-15T17:07:22.883Z,50.00
2017-04-15T17:08:21.865Z,49.60
2017-04-15T17:09:20.837Z,50.10
2017-04-15T17:10:19.864Z,50.80
2017-04-15T17:11:18.877Z,50.30
2017-04-15T17:12:17.843Z,50.30
2017-04-15T17:13:16.804Z,49.80
2017-04-15T17:14:16.529Z,49.60
2017-04-15T17:15:15.536Z,49.70
2017-04-15T17:16:14.519Z,50.20
2017-04-15T17:17:13.592Z,50.00
2017-04-15T17:18:12.559Z,49.70
2017-04-15T17:19:11.564Z,50.00
2017-04-15T17:20:10.696Z,50.00
2017-04-15T17:21:09.704Z,50.40
2017-04-15T17:22:08.733Z,50.20
2017-04-15T17:23:08.512Z,49.50
2017-04-15T17:24:07.509Z,48.50
2017-04-15T17:25:06.506Z,48.00
2017-04-15T17:26:05.466Z,48.10
2017-04-15T17:27:04.473Z,48.40
2017-04-15T17:28:03.444Z,48.50
2017-04-15T17:29:02.455Z,49.10
2017-04-15T17:30:01.461Z,49.20
2017-04-15T17:31:01.198Z,49.30